Time;durP1;ratioP1;P1;durP2;ratioP2;P2;SDS_P1;SDS_P2;PMS_P1;PMS_P2;Temp;Humidity;BMP_temperature;BMP_pressure;BME280_temperature;BME280_humidity;BME280_pressure;Samples;Min_cycle;Max_cycle;Signal;HPM_P1;HPM_P2
2022/09/24 00:01:59;;;;;;;52.78;40.60;;;13.40;99.90;;;;;;5080697;28;20055;-52
2022/09/24 00:04:30;;;;;;;54.08;41.10;;;13.40;99.90;;;;;;5080672;28;20408;-49
2022/09/24 00:06:55;;;;;;;48.58;40.08;;;13.50;99.90;;;;;;5080186;28;20040;-51
2022/09/24 00:09:21;;;;;;;51.63;40.67;;;13.50;99.90;;;;;;5080537;28;20083;-51
2022/09/24 00:11:49;;;;;;;52.00;40.05;;;13.30;99.90;;;;;;5079883;28;20101;-52
2022/09/24 00:14:16;;;;;;;53.05;41.40;;;13.40;99.90;;;;;;5079696;28;20108;-53
2022/09/24 00:16:43;;;;;;;55.83;42.40;;;13.50;99.90;;;;;;5079960;28;20068;-52
2022/09/24 00:19:10;;;;;;;61.05;44.80;;;13.40;99.90;;;;;;5080520;28;20048;-53
2022/09/24 00:21:37;;;;;;;57.03;42.85;;;13.50;99.90;;;;;;5080407;28;20048;-52
2022/09/24 00:27:02;;;;;;;57.45;44.15;;;13.30;99.90;;;;;;5080717;28;20134;-51
2022/09/24 00:29:31;;;;;;;57.97;45.30;;;13.50;99.90;;;;;;5079360;28;20581;-50
2022/09/24 00:31:57;;;;;;;62.38;46.33;;;13.30;99.90;;;;;;5080310;28;20154;-53
2022/09/24 00:34:23;;;;;;;58.83;44.70;;;13.60;99.90;;;;;;5080025;28;20504;-52
2022/09/24 00:36:49;;;;;;;60.30;45.45;;;13.30;99.90;;;;;;5079553;28;20048;-53
2022/09/24 00:39:15;;;;;;;60.13;45.97;;;13.30;99.90;;;;;;5078642;28;20040;-53
2022/09/24 00:41:44;;;;;;;58.88;45.63;;;13.30;99.90;;;;;;5079082;28;20100;-50
2022/09/24 00:44:37;;;;;;;65.03;46.55;;;13.40;99.90;;;;;;5080485;28;20044;-51
2022/09/24 00:47:03;;;;;;;61.13;47.17;;;13.30;99.90;;;;;;5079583;28;20029;-52
2022/09/24 00:49:29;;;;;;;64.32;46.45;;;13.50;99.90;;;;;;5079626;28;20056;-53
2022/09/24 00:51:55;;;;;;;66.85;49.25;;;13.60;99.90;;;;;;5079957;28;20427;-53
2022/09/24 00:54:27;;;;;;;64.80;49.70;;;13.30;99.90;;;;;;5079424;28;20374;-50
2022/09/24 00:56:54;;;;;;;65.93;50.42;;;13.40;99.90;;;;;;5080045;28;20062;-50
2022/09/24 00:59:22;;;;;;;66.45;49.97;;;13.40;99.90;;;;;;5079393;28;20116;-51
2022/09/24 01:01:50;;;;;;;65.75;49.20;;;13.30;99.90;;;;;;5080349;28;20226;-52
2022/09/24 01:04:21;;;;;;;66.63;49.90;;;13.60;99.90;;;;;;5079513;28;20043;-52
2022/09/24 01:06:50;;;;;;;68.40;50.72;;;13.60;99.90;;;;;;5061635;28;20052;-49
2022/09/24 01:09:19;;;;;;;70.40;52.75;;;13.40;99.90;;;;;;5078467;28;20056;-52
2022/09/24 01:12:05;;;;;;;69.15;51.80;;;13.60;99.90;;;;;;5079133;28;20056;-53
2022/09/24 01:14:59;;;;;;;65.32;49.55;;;13.40;99.90;;;;;;5080059;28;20044;-52
2022/09/24 01:17:32;;;;;;;72.35;53.20;;;13.30;99.90;;;;;;5079762;28;20036;-53
2022/09/24 01:20:39;;;;;;;68.78;52.00;;;13.40;99.90;;;;;;5077830;28;20044;-50
2022/09/24 01:23:25;;;;;;;70.13;51.65;;;13.30;99.90;;;;;;5072005;28;20492;-52
2022/09/24 01:26:06;;;;;;;71.45;52.20;;;13.40;99.90;;;;;;5079539;28;20052;-52
2022/09/24 01:29:06;;;;;;;70.70;52.17;;;13.40;99.90;;;;;;5077875;28;20053;-53
2022/09/24 01:31:43;;;;;;;73.40;53.95;;;13.60;99.90;;;;;;5080105;28;20086;-51
2022/09/24 01:34:13;;;;;;;69.43;53.45;;;13.50;99.90;;;;;;5079475;28;20768;-51
2022/09/24 01:36:40;;;;;;;73.97;54.28;;;13.60;99.90;;;;;;5079096;28;20060;-53
2022/09/24 01:39:07;;;;;;;77.75;54.33;;;13.40;99.90;;;;;;5079171;28;20110;-51
2022/09/24 01:41:35;;;;;;;86.55;59.63;;;13.50;99.90;;;;;;5078644;28;20495;-57
2022/09/24 01:44:04;;;;;;;85.82;62.08;;;13.60;99.90;;;;;;5079837;28;20040;-57
2022/09/24 01:46:30;;;;;;;90.97;60.40;;;13.60;99.90;;;;;;5078935;28;20049;-56
2022/09/24 01:48:57;;;;;;;90.20;62.50;;;13.60;99.90;;;;;;5079803;28;20036;-56
2022/09/24 01:51:29;;;;;;;94.88;61.33;;;13.50;99.90;;;;;;5079359;28;20127;-56
2022/09/24 01:53:55;;;;;;;94.47;63.80;;;13.60;99.90;;;;;;5078668;28;20124;-56
2022/09/24 01:56:35;;;;;;;94.65;60.75;;;13.30;99.90;;;;;;5078973;28;20056;-55
2022/09/24 01:59:08;;;;;;;92.97;63.75;;;13.40;99.90;;;;;;5078517;28;20076;-54
2022/09/24 02:01:48;;;;;;;97.72;64.05;;;13.50;99.90;;;;;;5083255;28;20528;-54
2022/09/24 02:04:18;;;;;;;97.30;62.92;;;13.30;99.90;;;;;;5083092;28;20036;-54
2022/09/24 02:07:07;;;;;;;97.93;63.00;;;13.40;99.90;;;;;;5082278;28;20412;-53
2022/09/24 02:09:36;;;;;;;91.18;63.17;;;13.60;99.90;;;;;;5075354;28;20040;-54
2022/09/24 02:12:13;;;;;;;94.05;61.20;;;13.50;99.90;;;;;;5082316;28;20047;-54
2022/09/24 02:14:51;;;;;;;95.95;62.17;;;13.30;99.90;;;;;;5083037;28;20037;-54
2022/09/24 02:17:17;;;;;;;88.75;59.25;;;13.30;99.90;;;;;;5081156;28;20044;-52
2022/09/24 02:19:45;;;;;;;101.13;63.80;;;13.50;99.90;;;;;;5082045;28;20055;-53
2022/09/24 02:22:13;;;;;;;92.50;61.78;;;13.30;99.90;;;;;;5082777;28;20094;-53
2022/09/24 02:24:55;;;;;;;96.78;63.17;;;13.60;99.90;;;;;;5080299;28;20428;-52
2022/09/24 02:27:29;;;;;;;92.78;61.17;;;13.40;99.90;;;;;;5082958;28;20068;-53
2022/09/24 02:29:56;;;;;;;91.07;62.45;;;13.60;99.90;;;;;;5082420;28;20045;-53
2022/09/24 02:32:24;;;;;;;93.70;59.53;;;13.50;99.90;;;;;;5082170;28;20040;-54
2022/09/24 02:34:54;;;;;;;92.68;58.72;;;13.50;99.90;;;;;;5082766;28;20163;-53
2022/09/24 02:37:22;;;;;;;90.25;56.95;;;13.60;99.90;;;;;;5081543;28;20044;-53
2022/09/24 02:39:49;;;;;;;92.68;57.88;;;13.50;99.90;;;;;;5082523;28;20058;-53
2022/09/24 02:42:16;;;;;;;86.15;56.33;;;13.30;99.90;;;;;;5081632;28;20048;-52
2022/09/24 02:44:42;;;;;;;77.30;51.60;;;13.30;99.90;;;;;;5082467;28;20064;-52
2022/09/24 02:47:08;;;;;;;71.50;47.35;;;13.60;99.90;;;;;;5082318;28;20439;-52
2022/09/24 02:49:34;;;;;;;81.50;51.05;;;13.60;99.90;;;;;;5081717;28;20044;-53
2022/09/24 02:52:00;;;;;;;78.15;51.75;;;13.30;99.90;;;;;;5082260;28;20106;-53
2022/09/24 02:54:25;;;;;;;78.32;51.97;;;13.70;99.90;;;;;;5063174;28;20080;-52
2022/09/24 02:56:52;;;;;;;77.43;50.60;;;13.60;99.90;;;;;;5081976;28;20489;-49
2022/09/24 02:59:18;;;;;;;67.00;45.42;;;13.60;99.90;;;;;;5081420;28;20048;-50
2022/09/24 03:01:44;;;;;;;70.47;46.13;;;13.40;99.90;;;;;;5082105;28;20100;-52
2022/09/24 03:04:11;;;;;;;61.63;41.67;;;13.50;99.90;;;;;;5081932;28;20051;-53
2022/09/24 03:06:36;;;;;;;62.75;42.38;;;13.50;99.90;;;;;;5081359;28;20066;-50
2022/09/24 03:09:03;;;;;;;63.35;41.30;;;13.40;99.90;;;;;;5081643;28;20088;-49
2022/09/24 03:11:30;;;;;;;66.20;41.17;;;13.50;99.90;;;;;;5062714;28;20037;-52
2022/09/24 03:13:55;;;;;;;57.72;38.63;;;13.40;99.90;;;;;;5082192;28;20045;-53
2022/09/24 03:16:22;;;;;;;62.25;39.47;;;13.80;99.90;;;;;;5080804;28;20041;-52
2022/09/24 03:18:48;;;;;;;58.17;38.42;;;13.70;99.90;;;;;;5082105;28;20131;-51
2022/09/24 03:21:16;;;;;;;51.70;35.35;;;13.50;99.90;;;;;;5081291;28;20045;-52
2022/09/24 03:23:42;;;;;;;49.55;32.25;;;13.60;99.90;;;;;;5080713;28;20511;-53
2022/09/24 03:26:08;;;;;;;45.05;30.90;;;13.70;99.90;;;;;;5079782;28;20044;-52
2022/09/24 03:28:34;;;;;;;40.10;27.08;;;13.40;99.90;;;;;;5080914;28;20083;-52
2022/09/24 03:30:59;;;;;;;43.15;29.52;;;13.50;99.90;;;;;;5081658;28;20064;-52
2022/09/24 03:33:26;;;;;;;41.55;26.23;;;13.50;99.90;;;;;;5079123;28;20434;-52
2022/09/24 03:36:03;;;;;;;33.92;22.45;;;13.50;99.90;;;;;;5081541;28;20066;-51
2022/09/24 03:38:29;;;;;;;28.92;15.45;;;13.70;99.90;;;;;;5080889;28;20044;-52
2022/09/24 03:40:56;;;;;;;21.52;12.35;;;13.60;99.90;;;;;;5080303;28;20130;-53
2022/09/24 03:43:22;;;;;;;23.42;12.90;;;13.60;99.90;;;;;;5081465;28;20044;-52
2022/09/24 03:45:48;;;;;;;23.08;12.70;;;13.70;99.90;;;;;;5080595;28;20067;-52
2022/09/24 03:48:18;;;;;;;19.17;10.55;;;13.50;99.90;;;;;;5081537;28;20490;-51
2022/09/24 03:50:45;;;;;;;12.60;7.30;;;13.50;99.90;;;;;;5080365;28;20051;-49
2022/09/24 03:53:11;;;;;;;16.30;5.50;;;13.50;99.90;;;;;;5080897;28;20145;-50
2022/09/24 03:55:51;;;;;;;17.85;5.60;;;13.80;99.90;;;;;;5080730;28;20037;-50
2022/09/24 03:58:17;;;;;;;15.00;3.20;;;13.60;99.90;;;;;;5080294;28;20127;-53
2022/09/24 04:00:43;;;;;;;9.35;2.25;;;13.70;99.90;;;;;;5080824;28;20083;-49
2022/09/24 04:03:09;;;;;;;9.73;2.00;;;13.50;99.90;;;;;;5080164;28;20039;-52
2022/09/24 04:05:35;;;;;;;12.48;2.92;;;13.80;99.90;;;;;;5081062;28;20079;-52
2022/09/24 04:08:02;;;;;;;8.65;2.53;;;13.70;99.90;;;;;;5080235;28;20084;-53
2022/09/24 04:10:28;;;;;;;13.30;2.38;;;13.80;99.90;;;;;;5078983;28;20106;-51
2022/09/24 04:12:54;;;;;;;12.13;2.45;;;13.50;99.90;;;;;;5079311;28;20042;-53
2022/09/24 04:15:21;;;;;;;10.77;1.90;;;13.60;99.90;;;;;;5079826;28;20071;-52
2022/09/24 04:17:52;;;;;;;9.15;1.85;;;13.60;99.90;;;;;;5080538;28;20052;-52
2022/09/24 04:20:21;;;;;;;13.05;2.00;;;13.70;99.90;;;;;;5079335;28;20060;-50
2022/09/24 04:22:50;;;;;;;14.05;2.80;;;13.70;99.90;;;;;;5080283;28;20520;-52
2022/09/24 04:25:17;;;;;;;9.13;1.98;;;13.50;99.90;;;;;;5079975;28;20039;-52
2022/09/24 04:27:43;;;;;;;10.23;2.17;;;13.70;99.90;;;;;;5080123;28;20050;-52
2022/09/24 04:30:12;;;;;;;10.27;2.83;;;13.50;99.90;;;;;;5080305;28;20205;-53
2022/09/24 04:32:38;;;;;;;12.00;2.10;;;13.70;99.90;;;;;;5079787;28;20045;-53
2022/09/24 04:35:05;;;;;;;9.45;1.95;;;13.60;99.90;;;;;;5080381;28;20059;-53
2022/09/24 04:37:30;;;;;;;13.10;2.33;;;13.70;99.90;;;;;;5075262;28;20040;-52
2022/09/24 04:39:56;;;;;;;14.40;2.28;;;13.60;99.90;;;;;;5063465;28;20044;-53
2022/09/24 04:42:22;;;;;;;9.95;2.30;;;13.60;99.90;;;;;;5079649;28;20060;-52
2022/09/24 04:44:47;;;;;;;11.52;2.30;;;13.60;99.90;;;;;;5080029;28;20033;-54
2022/09/24 04:47:14;;;;;;;12.57;2.35;;;13.70;99.90;;;;;;5078485;28;20044;-54
2022/09/24 04:49:42;;;;;;;9.30;1.90;;;13.70;99.90;;;;;;5079485;28;20040;-54
2022/09/24 04:52:07;;;;;;;14.10;2.20;;;13.50;99.90;;;;;;5079124;28;20116;-53
2022/09/24 04:54:33;;;;;;;11.32;2.03;;;13.50;99.90;;;;;;5079092;28;20044;-51
2022/09/24 04:56:59;;;;;;;14.40;3.25;;;13.40;99.90;;;;;;5080313;28;20048;-53
2022/09/24 04:59:24;;;;;;;12.23;2.17;;;13.60;99.90;;;;;;5079542;28;20444;-51
2022/09/24 05:01:50;;;;;;;15.55;2.40;;;13.50;99.90;;;;;;5079794;28;20502;-53
2022/09/24 05:04:16;;;;;;;14.93;2.40;;;13.70;99.90;;;;;;5079724;28;20512;-52
2022/09/24 05:06:42;;;;;;;14.32;2.88;;;13.40;99.90;;;;;;5079347;28;20055;-53
2022/09/24 05:09:08;;;;;;;14.95;3.22;;;13.50;99.90;;;;;;5079723;28;20418;-50
2022/09/24 05:11:33;;;;;;;16.65;2.42;;;13.60;99.90;;;;;;5079130;28;20344;-52
2022/09/24 05:13:59;;;;;;;15.98;2.85;;;13.40;99.90;;;;;;5078925;28;20032;-51
2022/09/24 05:16:25;;;;;;;14.48;2.92;;;13.50;99.90;;;;;;5078864;28;20047;-52
2022/09/24 05:18:50;;;;;;;12.52;2.58;;;13.50;99.90;;;;;;5080204;28;20040;-52
2022/09/24 05:21:16;;;;;;;12.13;2.78;;;13.40;99.90;;;;;;5079605;28;20051;-51
2022/09/24 05:23:41;;;;;;;14.77;2.75;;;13.50;99.90;;;;;;5076784;28;20049;-53
2022/09/24 05:28:52;;;;;;;16.30;2.95;;;13.40;99.90;;;;;;5074844;28;20071;-51
2022/09/24 05:31:17;;;;;;;10.65;2.45;;;13.60;99.90;;;;;;5076388;28;20059;-53
2022/09/24 05:33:43;;;;;;;11.27;2.20;;;13.60;99.90;;;;;;5076228;28;20342;-49
2022/09/24 05:36:09;;;;;;;13.25;2.25;;;13.50;99.90;;;;;;5079504;28;20104;-52
2022/09/24 05:38:34;;;;;;;11.60;1.80;;;13.50;99.90;;;;;;5068160;28;20070;-49
2022/09/24 05:41:00;;;;;;;10.85;2.17;;;13.50;99.90;;;;;;5070650;28;20040;-51
2022/09/24 05:43:30;;;;;;;10.77;2.05;;;13.50;99.90;;;;;;5078387;28;20070;-51
2022/09/24 05:45:57;;;;;;;10.77;1.92;;;13.40;99.90;;;;;;5077815;28;20061;-49
2022/09/24 05:48:24;;;;;;;9.43;1.58;;;13.50;99.90;;;;;;5079781;28;20292;-50
2022/09/24 05:50:54;;;;;;;15.93;4.15;;;13.50;99.90;;;;;;5079051;28;20072;-50
2022/09/24 05:53:21;;;;;;;11.18;1.77;;;13.50;99.90;;;;;;5079508;28;20070;-51
2022/09/24 05:55:47;;;;;;;12.55;1.85;;;13.70;99.90;;;;;;5079175;28;20050;-52
2022/09/24 05:58:13;;;;;;;13.90;3.60;;;13.50;99.90;;;;;;5078972;28;20091;-51
2022/09/24 06:00:39;;;;;;;12.73;3.13;;;13.50;99.90;;;;;;5078916;28;20056;-50
2022/09/24 06:03:09;;;;;;;10.93;2.38;;;13.60;99.90;;;;;;5078425;28;20036;-52
2022/09/24 06:05:35;;;;;;;8.77;2.20;;;13.50;99.90;;;;;;5079836;28;20040;-51
2022/09/24 06:08:02;;;;;;;12.32;2.30;;;13.70;99.90;;;;;;5078627;28;20608;-50
2022/09/24 06:10:28;;;;;;;10.82;2.00;;;13.50;99.90;;;;;;5078395;28;20032;-52
2022/09/24 06:12:55;;;;;;;14.93;2.63;;;13.60;99.90;;;;;;5077438;28;20052;-51
2022/09/24 06:15:21;;;;;;;10.68;2.03;;;13.50;99.90;;;;;;5078507;28;20047;-50
2022/09/24 06:17:47;;;;;;;11.32;2.65;;;13.60;99.90;;;;;;5079118;28;20040;-52
2022/09/24 06:20:13;;;;;;;12.35;2.25;;;13.60;99.90;;;;;;5078429;28;20329;-50
2022/09/24 06:22:39;;;;;;;12.85;2.13;;;13.70;99.90;;;;;;5079476;28;20040;-50
2022/09/24 06:25:06;;;;;;;10.30;2.33;;;13.70;99.90;;;;;;5077712;28;20046;-52
2022/09/24 06:27:32;;;;;;;10.65;2.05;;;13.70;99.90;;;;;;5078612;28;20044;-51
2022/09/24 06:29:57;;;;;;;13.68;3.33;;;13.70;99.90;;;;;;5078717;28;20060;-51
2022/09/24 06:32:24;;;;;;;11.90;2.50;;;13.60;99.90;;;;;;5078133;28;20040;-52
2022/09/24 06:34:49;;;;;;;11.85;2.22;;;13.60;99.90;;;;;;5078769;28;20075;-49
2022/09/24 06:37:15;;;;;;;11.82;2.47;;;13.70;99.90;;;;;;5076820;28;20500;-51
2022/09/24 06:39:41;;;;;;;14.80;2.35;;;13.70;99.90;;;;;;5058106;28;20365;-53
2022/09/24 06:42:07;;;;;;;12.50;2.10;;;13.80;99.90;;;;;;5078125;28;20054;-51
2022/09/24 06:44:33;;;;;;;10.30;1.95;;;13.70;99.90;;;;;;5078643;28;20107;-52
2022/09/24 06:47:00;;;;;;;12.07;2.40;;;13.80;99.90;;;;;;5077545;28;20048;-49
2022/09/24 06:49:26;;;;;;;15.88;2.80;;;13.80;99.90;;;;;;5078005;28;20052;-52
2022/09/24 06:51:55;;;;;;;16.40;2.88;;;13.80;99.90;;;;;;5078239;28;20068;-48
2022/09/24 06:54:21;;;;;;;19.33;3.08;;;13.80;99.90;;;;;;5077550;28;20064;-52
2022/09/24 06:56:47;;;;;;;10.23;2.55;;;13.90;99.90;;;;;;5077023;28;20059;-52
2022/09/24 06:59:13;;;;;;;10.98;2.00;;;13.90;99.90;;;;;;5077416;28;20040;-51
2022/09/24 07:01:39;;;;;;;17.35;2.15;;;13.90;99.90;;;;;;5078231;28;20051;-50
2022/09/24 07:04:05;;;;;;;13.23;1.88;;;13.80;99.90;;;;;;5077984;28;20112;-50
2022/09/24 07:07:28;;;;;;;12.80;1.90;;;13.90;99.90;;;;;;5069417;28;20067;-50
2022/09/24 07:09:18;;;;;;;13.48;2.22;;;14.00;99.90;;;;;;5067088;28;20064;-50
2022/09/24 07:11:45;;;;;;;11.55;1.95;;;13.90;99.90;;;;;;5048743;28;20076;-51
2022/09/24 07:14:14;;;;;;;9.52;2.17;;;14.00;99.90;;;;;;5070510;28;20118;-53
2022/09/24 07:16:39;;;;;;;11.32;2.20;;;14.00;99.90;;;;;;5064376;28;20044;-52
2022/09/24 07:19:05;;;;;;;11.10;2.13;;;14.10;99.90;;;;;;5067824;28;20131;-53
2022/09/24 07:21:31;;;;;;;15.35;2.50;;;14.00;99.90;;;;;;5076722;28;20041;-54
2022/09/24 07:23:57;;;;;;;12.25;2.03;;;14.10;99.90;;;;;;5076742;28;20048;-53
2022/09/24 07:26:22;;;;;;;15.57;2.03;;;14.10;99.90;;;;;;5077724;28;20037;-53
2022/09/24 07:28:48;;;;;;;13.65;2.65;;;14.20;99.90;;;;;;5076925;28;20041;-52
2022/09/24 07:31:16;;;;;;;10.18;2.08;;;14.10;99.90;;;;;;5059815;28;20032;-50
2022/09/24 07:33:42;;;;;;;7.93;1.52;;;14.30;99.90;;;;;;5077174;28;20429;-50
2022/09/24 07:36:08;;;;;;;13.05;2.25;;;14.30;99.90;;;;;;5076748;28;20111;-50
2022/09/24 07:38:35;;;;;;;10.65;2.67;;;14.30;99.90;;;;;;5065853;28;20108;-50
2022/09/24 07:41:03;;;;;;;15.25;2.10;;;14.40;99.90;;;;;;5067888;28;20048;-52
2022/09/24 07:43:30;;;;;;;13.35;1.98;;;14.40;99.90;;;;;;5077560;28;20087;-51
2022/09/24 07:45:57;;;;;;;11.07;1.88;;;14.40;99.90;;;;;;5075236;28;20109;-50
2022/09/24 07:48:23;;;;;;;12.35;1.73;;;14.40;99.90;;;;;;5077409;28;20049;-52
2022/09/24 07:50:50;;;;;;;9.60;2.03;;;14.30;99.90;;;;;;5075390;28;20072;-52
2022/09/24 07:53:16;;;;;;;11.18;1.65;;;14.40;99.90;;;;;;5076944;28;20044;-52
2022/09/24 07:55:42;;;;;;;13.40;2.05;;;14.40;99.90;;;;;;5078789;28;20584;-50
2022/09/24 07:58:12;;;;;;;10.90;1.90;;;14.30;99.90;;;;;;5060698;28;20133;-52
2022/09/24 08:00:38;;;;;;;12.35;1.85;;;14.40;99.90;;;;;;5080077;28;20036;-52
2022/09/24 08:03:04;;;;;;;9.82;1.63;;;14.30;99.90;;;;;;5078804;28;20048;-50
2022/09/24 08:05:31;;;;;;;12.35;1.65;;;14.40;99.90;;;;;;5079588;28;20104;-51
2022/09/24 08:07:57;;;;;;;12.38;2.03;;;14.40;99.90;;;;;;5077562;28;20052;-49
2022/09/24 08:10:25;;;;;;;9.25;1.75;;;14.50;99.90;;;;;;5079813;28;20057;-48
2022/09/24 08:12:51;;;;;;;13.23;2.15;;;14.40;99.90;;;;;;5065263;28;20544;-52
2022/09/24 08:15:17;;;;;;;8.88;1.60;;;14.50;99.90;;;;;;5058698;28;20047;-50
2022/09/24 08:17:43;;;;;;;13.02;1.50;;;14.50;99.90;;;;;;5062337;28;20045;-51
2022/09/24 08:20:09;;;;;;;9.75;1.40;;;14.60;99.90;;;;;;5059118;28;20105;-51
2022/09/24 08:22:35;;;;;;;10.63;1.77;;;14.60;99.90;;;;;;5060072;28;20132;-51
2022/09/24 08:25:03;;;;;;;10.38;1.40;;;14.70;99.90;;;;;;5059501;28;20122;-52
2022/09/24 08:27:28;;;;;;;7.20;1.60;;;14.70;99.90;;;;;;5053965;28;20112;-51
2022/09/24 08:29:55;;;;;;;12.45;1.80;;;14.80;99.90;;;;;;5061997;28;20076;-50
2022/09/24 08:32:21;;;;;;;11.60;1.95;;;14.80;99.90;;;;;;5062997;28;20064;-52
2022/09/24 08:34:46;;;;;;;16.05;2.20;;;14.80;99.90;;;;;;5062198;28;20063;-52
2022/09/24 08:37:12;;;;;;;8.32;1.85;;;14.80;99.90;;;;;;5058653;28;20036;-49
2022/09/24 08:39:38;;;;;;;9.93;1.65;;;14.80;99.90;;;;;;5059373;28;20039;-52
2022/09/24 08:42:31;;;;;;;14.60;2.15;;;14.80;99.90;;;;;;5061178;28;20049;-53
2022/09/24 08:47:49;;;;;;;9.25;2.03;;;14.90;99.90;;;;;;5060433;28;20065;-53
2022/09/24 08:50:24;;;;;;;8.52;1.73;;;15.00;99.90;;;;;;5041812;28;20101;-54
2022/09/24 08:52:56;;;;;;;7.72;1.80;;;15.00;99.90;;;;;;5062870;28;20041;-51
2022/09/24 08:55:30;;;;;;;10.68;1.80;;;15.10;99.90;;;;;;5061732;28;20048;-53
2022/09/24 08:58:30;;;;;;;9.05;1.45;;;15.10;99.90;;;;;;5060636;28;20174;-51
2022/09/24 09:00:56;;;;;;;9.00;1.70;;;15.10;99.90;;;;;;5060719;28;20497;-51
2022/09/24 09:04:12;;;;;;;8.48;2.17;;;15.20;99.90;;;;;;5064228;28;20049;-52
2022/09/24 09:06:55;;;;;;;12.32;1.70;;;15.10;99.90;;;;;;5019663;28;20046;-50
2022/09/24 09:09:24;;;;;;;8.70;1.83;;;15.10;99.90;;;;;;5018488;28;20050;-52
2022/09/24 09:11:56;;;;;;;9.25;1.50;;;15.10;99.90;;;;;;5048389;28;20057;-52
2022/09/24 09:14:42;;;;;;;12.70;1.77;;;15.10;99.90;;;;;;5067223;28;20458;-51
2022/09/24 09:17:26;;;;;;;10.82;3.13;;;15.10;99.90;;;;;;5060655;28;20040;-53
2022/09/24 09:19:58;;;;;;;9.90;1.85;;;15.00;99.90;;;;;;5062075;28;20041;-50
2022/09/24 09:22:46;;;;;;;8.53;1.53;;;15.10;99.90;;;;;;5062988;28;20052;-52
2022/09/24 09:25:23;;;;;;;8.75;1.90;;;14.90;99.90;;;;;;5060321;28;20045;-51
2022/09/24 09:28:02;;;;;;;10.77;1.90;;;14.90;99.90;;;;;;5061805;28;20037;-49
2022/09/24 09:30:36;;;;;;;14.90;1.95;;;14.90;99.90;;;;;;5062243;28;20566;-52
2022/09/24 09:33:17;;;;;;;12.13;1.75;;;14.90;99.90;;;;;;5059867;28;20047;-51
2022/09/24 09:36:09;;;;;;;9.90;2.17;;;15.00;99.90;;;;;;5060102;28;20691;-50
2022/09/24 09:38:43;;;;;;;10.23;1.60;;;15.20;99.90;;;;;;5062959;28;20041;-49
2022/09/24 09:41:22;;;;;;;10.88;2.15;;;15.30;99.90;;;;;;5061174;28;20727;-49
2022/09/24 09:43:48;;;;;;;9.90;1.77;;;15.30;99.90;;;;;;5064774;28;20049;-53
2022/09/24 09:46:32;;;;;;;12.93;1.90;;;15.30;99.90;;;;;;5058246;28;20416;-51
2022/09/24 09:49:04;;;;;;;11.50;2.47;;;15.20;99.90;;;;;;5061865;28;20525;-51
2022/09/24 09:51:37;;;;;;;12.95;2.28;;;15.20;99.90;;;;;;5061448;28;20048;-52
2022/09/24 09:54:04;;;;;;;9.20;1.90;;;15.20;99.90;;;;;;5061344;28;20465;-51
2022/09/24 09:56:50;;;;;;;10.48;1.60;;;15.20;99.90;;;;;;5063808;28;20059;-51
2022/09/24 09:59:20;;;;;;;14.57;2.67;;;15.00;99.90;;;;;;5064137;28;20041;-52
2022/09/24 10:01:48;;;;;;;13.68;2.33;;;14.90;99.90;;;;;;5064822;28;20033;-55
2022/09/24 10:04:33;;;;;;;11.80;1.73;;;14.90;99.90;;;;;;5062926;28;20036;-52
2022/09/24 10:07:15;;;;;;;9.80;1.92;;;14.90;99.90;;;;;;5062057;28;20040;-52
2022/09/24 10:09:43;;;;;;;8.57;1.40;;;14.90;99.90;;;;;;5062915;28;20045;-52
2022/09/24 10:12:14;;;;;;;7.38;1.92;;;15.00;99.90;;;;;;5063268;28;20032;-51
2022/09/24 10:14:41;;;;;;;12.27;1.38;;;15.00;99.90;;;;;;5063570;28;20041;-52
2022/09/24 10:17:17;;;;;;;9.00;1.63;;;15.00;99.90;;;;;;5064979;28;20051;-53
2022/09/24 10:19:49;;;;;;;8.45;1.40;;;15.20;99.90;;;;;;5063230;28;20083;-52
2022/09/24 10:22:27;;;;;;;9.23;1.52;;;15.30;99.90;;;;;;5063337;28;20040;-52
2022/09/24 10:24:54;;;;;;;6.75;1.48;;;15.50;99.90;;;;;;5065874;28;20044;-51
2022/09/24 10:27:36;;;;;;;8.30;1.33;;;15.50;99.90;;;;;;5067176;28;20041;-53
2022/09/24 10:32:57;;;;;;;8.30;1.90;;;15.50;99.90;;;;;;5080661;28;20511;-53
2022/09/24 10:35:34;;;;;;;10.10;2.28;;;15.40;99.90;;;;;;5081819;28;20048;-53
2022/09/24 10:38:01;;;;;;;10.32;1.88;;;15.40;99.90;;;;;;5078564;28;20048;-52
2022/09/24 10:40:30;;;;;;;10.20;1.83;;;15.30;99.90;;;;;;5070885;28;20033;-51
2022/09/24 10:43:01;;;;;;;9.18;1.52;;;15.40;99.90;;;;;;5066997;28;20110;-53
2022/09/24 10:45:54;;;;;;;9.20;1.60;;;15.30;99.90;;;;;;5067054;28;20079;-53
2022/09/24 10:48:34;;;;;;;8.82;1.50;;;15.30;99.90;;;;;;5073145;28;20052;-52
2022/09/24 10:51:29;;;;;;;7.10;1.85;;;15.30;99.90;;;;;;5079961;28;20100;-52
2022/09/24 10:54:00;;;;;;;10.57;2.17;;;15.30;99.90;;;;;;5079400;28;20041;-53
2022/09/24 10:56:29;;;;;;;12.77;2.42;;;15.30;99.90;;;;;;5081626;28;20104;-53
2022/09/24 10:58:58;;;;;;;9.15;1.40;;;15.40;99.90;;;;;;5080693;28;20051;-53
2022/09/24 11:01:36;;;;;;;9.15;1.50;;;15.40;99.90;;;;;;5081516;28;20043;-54
2022/09/24 11:04:07;;;;;;;11.82;1.50;;;15.40;99.90;;;;;;5080243;28;20123;-54
2022/09/24 11:07:03;;;;;;;6.72;1.30;;;15.30;99.90;;;;;;5078263;28;20048;-53
2022/09/24 11:09:40;;;;;;;7.10;1.30;;;15.30;99.90;;;;;;5058421;28;20393;-52
2022/09/24 11:12:29;;;;;;;11.70;1.63;;;15.20;99.90;;;;;;5080560;28;20052;-53
2022/09/24 11:15:32;;;;;;;11.65;1.52;;;15.20;99.90;;;;;;5078282;28;20052;-53
2022/09/24 11:18:21;;;;;;;9.48;1.50;;;15.20;99.90;;;;;;5078971;28;20055;-50
2022/09/24 11:21:23;;;;;;;8.95;1.40;;;15.10;99.90;;;;;;5080638;28;20040;-50
2022/09/24 11:24:01;;;;;;;6.07;1.30;;;15.00;99.90;;;;;;5060508;28;20077;-51
2022/09/24 11:26:56;;;;;;;10.30;1.38;;;15.10;99.90;;;;;;5081118;28;20045;-50
2022/09/24 11:29:37;;;;;;;9.25;1.50;;;15.10;99.90;;;;;;5043002;28;20072;-53
2022/09/24 11:32:38;;;;;;;8.82;1.90;;;15.10;99.90;;;;;;5080166;28;20051;-52
2022/09/24 11:35:45;;;;;;;9.15;1.67;;;15.10;99.90;;;;;;5061549;28;20084;-53
2022/09/24 11:38:16;;;;;;;8.25;1.40;;;15.20;99.90;;;;;;5037414;28;20041;-52
2022/09/24 11:40:47;;;;;;;11.23;1.55;;;15.20;99.90;;;;;;5031831;28;20148;-53
2022/09/24 11:43:47;;;;;;;9.13;1.67;;;15.20;99.90;;;;;;5060549;28;20090;-58
2022/09/24 11:46:39;;;;;;;11.23;1.73;;;15.30;99.90;;;;;;5079505;28;20112;-52
2022/09/24 11:49:46;;;;;;;8.82;1.42;;;15.30;99.90;;;;;;5078809;28;20043;-52
2022/09/24 11:52:17;;;;;;;12.07;1.58;;;15.40;99.90;;;;;;5079363;28;20571;-52
2022/09/24 11:55:09;;;;;;;9.20;1.95;;;15.40;99.90;;;;;;5079414;28;20120;-52
2022/09/24 11:58:01;;;;;;;;;;;15.50;99.90;;;;;;5077363;28;20084;-53
2022/09/24 12:00:33;;;;;;;10.35;1.73;;;15.50;99.90;;;;;;5062784;28;20170;-52
2022/09/24 12:03:13;;;;;;;8.88;1.35;;;15.50;99.90;;;;;;5077380;28;20098;-52
2022/09/24 12:05:55;;;;;;;7.15;1.55;;;15.50;99.90;;;;;;5080725;28;20052;-52
2022/09/24 12:08:32;;;;;;;13.77;2.45;;;15.40;99.90;;;;;;5080619;28;20049;-54
2022/09/24 12:11:19;;;;;;;10.80;1.77;;;15.50;99.90;;;;;;5079633;28;20047;-53
2022/09/24 12:13:57;;;;;;;7.82;1.60;;;15.40;99.90;;;;;;5079383;28;20048;-51
2022/09/24 12:16:27;;;;;;;13.23;1.83;;;15.40;99.90;;;;;;5079310;28;20040;-51
2022/09/24 12:18:56;;;;;;;13.48;1.95;;;15.30;99.90;;;;;;5079740;28;20158;-53
2022/09/24 12:21:41;;;;;;;10.07;1.70;;;15.30;99.90;;;;;;5079846;28;20040;-53
2022/09/24 12:24:12;;;;;;;11.70;1.88;;;15.40;99.90;;;;;;5077796;28;20190;-52
2022/09/24 12:26:40;;;;;;;11.57;2.80;;;15.40;99.90;;;;;;5078000;28;20055;-51
2022/09/24 12:32:54;;;;;;;7.38;1.23;;;15.30;99.90;;;;;;5078122;28;20100;-53
2022/09/24 12:35:42;;;;;;;15.15;2.65;;;15.10;99.90;;;;;;5078060;28;20040;-53
2022/09/24 12:38:20;;;;;;;9.25;1.70;;;15.10;99.90;;;;;;5071842;28;20162;-52
2022/09/24 12:41:21;;;;;;;9.48;1.92;;;15.10;99.90;;;;;;5058898;28;20051;-53
2022/09/24 12:43:50;;;;;;;8.82;1.75;;;15.00;99.90;;;;;;5037654;28;20098;-51
2022/09/24 12:46:23;;;;;;;8.73;1.42;;;15.00;99.90;;;;;;5054696;28;20063;-52
2022/09/24 12:48:50;;;;;;;8.05;1.38;;;14.90;99.90;;;;;;5060510;28;20044;-49
2022/09/24 12:51:21;;;;;;;11.50;1.80;;;14.90;99.90;;;;;;5062974;28;20060;-53
2022/09/24 12:54:07;;;;;;;11.18;1.42;;;14.90;99.90;;;;;;5056328;28;20053;-50
2022/09/24 12:56:33;;;;;;;9.75;1.50;;;14.80;99.90;;;;;;5060353;28;20044;-53
2022/09/24 12:59:01;;;;;;;12.38;2.10;;;14.80;99.90;;;;;;5057469;28;20409;-52
2022/09/24 13:01:30;;;;;;;10.07;2.47;;;14.80;99.90;;;;;;5060798;28;20049;-53
2022/09/24 13:04:13;;;;;;;11.10;1.92;;;14.70;99.90;;;;;;5057990;28;20052;-52
2022/09/24 13:06:39;;;;;;;;;;;14.70;99.90;;;;;;5059753;28;20629;-52
2022/09/24 13:09:43;;;;;;;9.20;2.15;;;14.70;99.90;;;;;;5058206;28;21514;-53
2022/09/24 13:12:21;;;;;;;11.18;1.80;;;14.70;99.90;;;;;;5058694;28;20052;-52
2022/09/24 13:15:03;;;;;;;8.52;1.95;;;14.70;99.90;;;;;;5059794;28;20100;-52